createdAt,value
2019-04-05T00:01:59.927Z,1.47
2019-04-05T00:06:21.082Z,1.73
2019-04-05T00:10:39.835Z,1.60
2019-04-05T00:15:14.577Z,2.00
2019-04-05T00:19:23.631Z,2.00
2019-04-05T00:23:41.889Z,1.97
2019-04-05T00:28:03.374Z,2.10
2019-04-05T00:32:21.985Z,1.70
2019-04-05T00:36:42.392Z,1.87
2019-04-05T00:41:03.831Z,1.93
2019-04-05T00:45:28.378Z,2.47
2019-04-05T00:49:44.961Z,1.60
2019-04-05T00:54:03.662Z,1.70
2019-04-05T00:58:24.132Z,1.57
2019-04-05T01:02:44.085Z,1.77
2019-04-05T01:07:03.886Z,2.03
2019-04-05T01:11:22.321Z,1.77
2019-04-05T01:15:42.066Z,1.60
2019-04-05T01:20:04.489Z,1.30
2019-04-05T01:24:26.545Z,1.50
2019-04-05T01:28:47.275Z,1.60
2019-04-05T01:33:07.135Z,1.70
2019-04-05T01:37:29.001Z,1.93
2019-04-05T01:41:49.235Z,2.00
2019-04-05T01:46:08.658Z,2.07
2019-04-05T01:50:27.222Z,2.00
2019-04-05T01:54:45.571Z,1.80
2019-04-05T01:59:05.584Z,1.40
2019-04-05T02:03:24.229Z,1.80
2019-04-05T02:07:43.062Z,1.60
2019-04-05T02:12:02.512Z,1.67
2019-04-05T02:16:22.693Z,1.40
2019-04-05T02:20:43.764Z,1.07
2019-04-05T02:25:03.872Z,1.43
2019-04-05T02:29:22.864Z,1.67
2019-04-05T02:33:42.176Z,1.90
2019-04-05T02:38:00.514Z,2.00
2019-04-05T02:42:21.437Z,2.53
2019-04-05T02:46:42.669Z,2.47
2019-04-05T02:51:04.551Z,2.00
2019-04-05T02:55:24.325Z,2.00
2019-04-05T02:59:45.464Z,1.97
2019-04-05T03:04:07.034Z,1.80
2019-04-05T03:08:26.019Z,1.47
2019-04-05T03:12:45.698Z,1.70
2019-04-05T03:17:03.820Z,1.63
2019-04-05T03:21:26.679Z,1.60
2019-04-05T03:25:48.266Z,1.83
2019-04-05T03:30:10.342Z,1.60
2019-04-05T03:34:32.013Z,1.30
2019-04-05T03:38:55.410Z,1.47
2019-04-05T03:43:14.294Z,1.40
2019-04-05T03:47:35.356Z,1.50
2019-04-05T03:51:55.208Z,1.57
2019-04-05T03:56:16.067Z,1.50
2019-04-05T04:00:34.679Z,1.47
2019-04-05T04:04:54.279Z,1.50
2019-04-05T04:09:15.257Z,1.80
2019-04-05T04:13:35.580Z,1.40
2019-04-05T04:17:57.905Z,1.60
2019-04-05T04:22:31.617Z,1.30
2019-04-05T04:26:53.784Z,1.40
2019-04-05T04:31:13.176Z,1.63
2019-04-05T04:35:32.428Z,1.60
2019-04-05T04:39:51.578Z,1.73
2019-04-05T04:44:12.409Z,1.83
2019-04-05T04:48:33.442Z,1.90
2019-04-05T04:52:55.678Z,2.00
2019-04-05T04:57:16.265Z,1.53
2019-04-05T05:01:36.005Z,1.80
2019-04-05T05:05:56.357Z,1.60
2019-04-05T05:10:15.440Z,1.70
2019-04-05T05:14:35.640Z,1.77
2019-04-05T05:18:55.579Z,1.60
2019-04-05T05:23:16.262Z,1.97
2019-04-05T05:27:36.323Z,1.53
2019-04-05T05:31:54.934Z,2.07
2019-04-05T05:36:15.662Z,1.63
2019-04-05T05:40:37.483Z,1.97
2019-04-05T05:44:55.894Z,1.93
2019-04-05T05:49:14.139Z,2.20
2019-04-05T05:53:34.536Z,2.13
2019-04-05T05:57:54.861Z,2.10
2019-04-05T06:02:13.998Z,2.20
2019-04-05T06:06:32.446Z,1.90
2019-04-05T06:10:51.497Z,2.03
2019-04-05T06:15:10.438Z,1.63
2019-04-05T06:19:29.243Z,1.80
2019-04-05T06:23:47.619Z,1.60
2019-04-05T06:28:08.404Z,2.00
2019-04-05T06:32:26.968Z,1.50
2019-04-05T06:36:45.388Z,1.27
2019-04-05T06:41:04.943Z,1.60
2019-04-05T06:45:24.791Z,1.60
2019-04-05T06:49:43.652Z,1.33
2019-04-05T06:54:03.358Z,1.77
2019-04-05T06:58:29.034Z,1.60
2019-04-05T07:02:43.309Z,1.60
2019-04-05T07:07:02.895Z,1.50
2019-04-05T07:11:21.670Z,1.77
2019-04-05T07:15:40.645Z,1.97
2019-04-05T07:20:00.223Z,1.50
2019-04-05T07:24:19.984Z,1.70
2019-04-05T07:28:38.721Z,2.00
2019-04-05T07:32:57.070Z,1.90
2019-04-05T07:37:15.449Z,1.80
2019-04-05T07:41:33.815Z,2.03
2019-04-05T07:45:51.985Z,2.17
2019-04-05T07:50:11.561Z,2.00
2019-04-05T07:54:29.726Z,2.10
2019-04-05T07:58:49.396Z,2.10
2019-04-05T08:03:08.356Z,2.47
2019-04-05T08:07:32.174Z,2.17
2019-04-05T08:11:52.024Z,2.00
2019-04-05T08:16:12.066Z,2.00
2019-04-05T08:20:32.021Z,2.00
2019-04-05T08:24:50.891Z,2.63
2019-04-05T08:29:09.334Z,2.10
2019-04-05T08:33:28.704Z,2.13
2019-04-05T08:37:48.538Z,2.60
2019-04-05T08:42:07.384Z,2.43
2019-04-05T08:46:33.183Z,3.60
2019-04-05T08:50:53.974Z,2.50
2019-04-05T08:55:13.642Z,2.37
2019-04-05T08:59:32.783Z,3.00
2019-04-05T09:03:55.850Z,2.40
2019-04-05T09:08:17.317Z,2.70
2019-04-05T09:12:37.835Z,2.60
2019-04-05T09:16:59.690Z,2.37
2019-04-05T09:21:21.935Z,2.70
2019-04-05T09:25:40.715Z,2.50
2019-04-05T09:30:08.198Z,3.07
2019-04-05T09:34:28.994Z,2.90
2019-04-05T09:38:47.400Z,2.93
2019-04-05T09:43:06.738Z,3.70
2019-04-05T09:47:24.938Z,3.83
2019-04-05T09:51:43.419Z,3.33
2019-04-05T09:56:02.736Z,3.93
2019-04-05T10:00:26.286Z,3.07
2019-04-05T10:04:48.060Z,3.23
2019-04-05T10:09:12.874Z,3.80
2019-04-05T10:13:35.770Z,3.67
2019-04-05T10:18:00.342Z,3.00
2019-04-05T10:22:19.288Z,3.00
2019-04-05T10:26:37.642Z,3.03
2019-04-05T10:30:56.119Z,3.37
2019-04-05T10:35:14.957Z,3.00
2019-04-05T10:39:33.166Z,3.00
2019-04-05T10:43:51.962Z,3.20
2019-04-05T10:48:11.149Z,4.10
2019-04-05T10:52:29.503Z,3.03
2019-04-05T10:56:47.714Z,3.33
2019-04-05T11:01:06.371Z,3.90
2019-04-05T11:05:24.767Z,3.00
2019-04-05T11:09:43.201Z,3.70
2019-04-05T11:14:13.587Z,3.40
2019-04-05T11:18:25.394Z,2.70
2019-04-05T11:22:46.665Z,3.20
2019-04-05T11:27:06.626Z,2.70
2019-04-05T11:31:24.932Z,3.03
2019-04-05T11:35:44.602Z,3.00
2019-04-05T11:40:03.884Z,2.77
2019-04-05T11:44:25.532Z,1.83
2019-04-05T11:48:45.268Z,2.40
2019-04-05T11:53:04.939Z,2.40
2019-04-05T11:57:24.634Z,2.37
2019-04-05T12:02:02.196Z,2.50
2019-04-05T12:06:21.709Z,2.50
2019-04-05T12:10:40.444Z,2.63
2019-04-05T12:14:59.127Z,2.60
2019-04-05T12:19:17.451Z,2.67
2019-04-05T12:23:36.483Z,2.13
2019-04-05T12:28:06.191Z,2.60
2019-04-05T12:32:18.759Z,2.50
2019-04-05T12:36:37.312Z,2.60
2019-04-05T12:40:55.689Z,2.77
2019-04-05T12:45:18.381Z,2.20
2019-04-05T12:49:38.214Z,2.40
2019-04-05T12:53:57.703Z,2.70
2019-04-05T12:58:16.713Z,2.27
2019-04-05T13:02:35.094Z,1.90
2019-04-05T13:06:54.271Z,2.77
2019-04-05T13:11:13.877Z,2.17
2019-04-05T13:15:33.468Z,1.97
2019-04-05T13:19:54.073Z,2.17
2019-04-05T13:24:13.978Z,2.23
2019-04-05T13:28:37.673Z,1.87
2019-04-05T13:32:57.965Z,1.67
2019-04-05T13:37:20.915Z,1.93
2019-04-05T13:41:40.673Z,1.90
2019-04-05T13:45:59.432Z,2.40
2019-04-05T13:50:19.489Z,2.50
2019-04-05T13:54:40.362Z,1.83
2019-04-05T13:59:00.195Z,2.00
2019-04-05T14:03:20.925Z,2.10
2019-04-05T14:07:39.490Z,1.70
2019-04-05T14:11:58.440Z,1.93
2019-04-05T14:16:16.724Z,1.73
2019-04-05T14:20:35.073Z,2.10
2019-04-05T14:24:56.417Z,2.17
2019-04-05T14:29:14.136Z,2.10
2019-04-05T14:33:33.314Z,1.97
2019-04-05T14:37:52.360Z,2.50
2019-04-05T14:42:14.548Z,2.77
2019-04-05T14:46:33.514Z,2.17
2019-04-05T14:50:51.922Z,2.00
2019-04-05T14:55:10.728Z,2.40
2019-04-05T14:59:32.875Z,2.10
2019-04-05T15:03:56.853Z,2.70
2019-04-05T15:08:20.478Z,2.70
2019-04-05T15:12:41.508Z,3.00
2019-04-05T15:17:00.748Z,2.70
2019-04-05T15:21:24.369Z,2.30
2019-04-05T15:25:49.543Z,2.63
2019-04-05T15:30:11.115Z,2.23
2019-04-05T15:34:30.946Z,1.87
2019-04-05T15:39:01.525Z,2.30
2019-04-05T15:43:21.432Z,3.47
2019-04-05T15:47:39.862Z,2.60
2019-04-05T15:51:59.040Z,2.47
2019-04-05T15:56:17.922Z,2.40
2019-04-05T16:00:46.589Z,2.93
2019-04-05T16:05:04.835Z,2.20
2019-04-05T16:09:23.891Z,2.70
2019-04-05T16:13:42.303Z,2.03
2019-04-05T16:18:02.227Z,2.10
2019-04-05T16:22:30.843Z,2.40
2019-04-05T16:26:41.466Z,2.03
2019-04-05T16:30:59.892Z,1.80
2019-04-05T16:35:18.162Z,2.30
2019-04-05T16:39:36.866Z,1.93
2019-04-05T16:43:55.518Z,2.20
2019-04-05T16:48:14.670Z,2.00
2019-04-05T16:52:44.118Z,2.23
2019-04-05T16:56:53.627Z,1.83
2019-04-05T17:01:12.072Z,1.63
2019-04-05T17:05:30.591Z,6.30
2019-04-05T17:09:48.979Z,2.33
2019-04-05T17:14:07.605Z,2.37
2019-04-05T17:18:26.312Z,2.00
2019-04-05T17:22:57.153Z,2.00
2019-04-05T17:27:05.237Z,2.07
2019-04-05T17:31:24.830Z,1.70
2019-04-05T17:35:43.861Z,2.20
2019-04-05T17:40:02.358Z,1.80
2019-04-05T17:44:21.492Z,1.70
2019-04-05T17:48:39.742Z,1.70
2019-04-05T17:53:11.250Z,1.60
2019-04-05T17:57:20.306Z,1.77
2019-04-05T18:01:40.341Z,2.10
2019-04-05T18:05:58.815Z,1.90
2019-04-05T18:10:17.728Z,2.20
2019-04-05T18:14:36.423Z,1.87
2019-04-05T18:18:55.065Z,2.20
2019-04-05T18:23:25.087Z,2.80
2019-04-05T18:27:35.106Z,2.00
2019-04-05T18:31:53.923Z,1.83
2019-04-05T18:36:12.163Z,2.30
2019-04-05T18:40:39.992Z,1.90
2019-04-05T18:44:50.629Z,1.90
2019-04-05T18:49:09.108Z,2.40
2019-04-05T18:53:37.505Z,2.03
2019-04-05T18:57:49.293Z,2.30
2019-04-05T19:02:09.184Z,1.90
2019-04-05T19:06:28.878Z,2.10
2019-04-05T19:10:48.690Z,2.37
2019-04-05T19:15:09.417Z,2.10
2019-04-05T19:19:27.905Z,1.77
2019-04-05T19:23:50.955Z,1.97
2019-04-05T19:28:07.938Z,1.53
2019-04-05T19:49:48.980Z,2.00
2019-04-05T19:54:07.237Z,2.40
2019-04-05T19:58:27.098Z,2.20
2019-04-05T20:02:45.944Z,1.63
2019-04-05T20:07:04.302Z,1.90
2019-04-05T20:11:23.183Z,2.07
2019-04-05T20:15:41.886Z,1.97
2019-04-05T20:20:02.160Z,1.80
2019-04-05T20:24:22.108Z,1.60
2019-04-05T20:28:42.268Z,1.70
2019-04-05T20:33:01.396Z,1.80
2019-04-05T20:37:20.400Z,2.00
2019-04-05T20:41:39.426Z,1.97
2019-04-05T20:45:58.950Z,1.80
2019-04-05T20:50:17.544Z,1.90
2019-04-05T20:54:38.062Z,1.73
2019-04-05T20:59:01.213Z,2.07
2019-04-05T21:03:21.025Z,1.70
2019-04-05T21:07:39.755Z,1.83
2019-04-05T21:11:58.233Z,1.80
2019-04-05T21:16:17.896Z,2.57
2019-04-05T21:20:37.362Z,1.97
2019-04-05T21:24:56.019Z,2.20
2019-04-05T21:29:15.035Z,2.63
2019-04-05T21:33:33.679Z,2.17
2019-04-05T21:37:52.004Z,2.63
2019-04-05T21:42:11.469Z,2.13
2019-04-05T21:46:31.088Z,2.53
2019-04-05T21:50:49.832Z,2.70
2019-04-05T21:55:09.283Z,2.27
2019-04-05T21:59:28.078Z,2.17
2019-04-05T22:03:47.236Z,2.50
2019-04-05T22:08:05.833Z,2.57
2019-04-05T22:12:26.918Z,2.60
2019-04-05T22:16:45.594Z,2.43
2019-04-05T22:21:04.021Z,2.67
2019-04-05T22:25:23.556Z,2.63
2019-04-05T22:29:42.423Z,2.23
2019-04-05T22:34:02.085Z,1.80
2019-04-05T22:38:20.286Z,2.40
2019-04-05T22:42:38.596Z,2.53
2019-04-05T22:46:57.249Z,3.10
2019-04-05T22:51:15.982Z,2.47
2019-04-05T22:55:34.498Z,2.30
2019-04-05T22:59:54.280Z,2.70
2019-04-05T23:04:13.805Z,2.40
2019-04-05T23:08:33.313Z,2.43
2019-04-05T23:12:51.527Z,2.30
2019-04-05T23:17:10.877Z,2.50
2019-04-05T23:21:29.259Z,2.27
2019-04-05T23:25:47.771Z,2.30
2019-04-05T23:30:08.565Z,2.47
2019-04-05T23:34:26.793Z,2.50
2019-04-05T23:38:44.953Z,2.70
2019-04-05T23:43:03.313Z,2.60
2019-04-05T23:47:21.457Z,2.90
2019-04-05T23:51:39.847Z,2.97
2019-04-05T23:55:58.343Z,2.27
